sensor_id;sensor_type;location;lat;lon;timestamp;temperature;humidity
73438;DHT22;66471;56.532;21.020;2024-01-10T08:50:30;3.40;99.90
73438;DHT22;66471;56.532;21.020;2024-01-10T08:52:57;3.60;99.90
73438;DHT22;66471;56.532;21.020;2024-01-10T08:55:25;3.50;99.90
73438;DHT22;66471;56.532;21.020;2024-01-10T08:57:52;3.70;99.90
73438;DHT22;66471;56.532;21.020;2024-01-10T09:00:19;3.70;99.90
73438;DHT22;66471;56.532;21.020;2024-01-10T09:02:46;3.70;99.90
73438;DHT22;66471;56.532;21.020;2024-01-10T09:05:13;3.90;99.90
73438;DHT22;66471;56.532;21.020;2024-01-10T09:07:40;3.70;99.90
73438;DHT22;66471;56.532;21.020;2024-01-10T09:10:09;3.80;99.90
73438;DHT22;66471;56.532;21.020;2024-01-10T09:12:37;4.00;99.90
73438;DHT22;66471;56.532;21.020;2024-01-10T09:15:05;3.90;99.90
73438;DHT22;66471;56.532;21.020;2024-01-10T09:17:42;4.10;99.90
73438;DHT22;66471;56.532;21.020;2024-01-10T09:20:11;4.10;99.90
73438;DHT22;66471;56.532;21.020;2024-01-10T09:22:39;3.90;99.90
73438;DHT22;66471;56.532;21.020;2024-01-10T09:25:10;3.90;99.90
73438;DHT22;66471;56.532;21.020;2024-01-10T09:27:39;4.20;99.90
73438;DHT22;66471;56.532;21.020;2024-01-10T09:30:09;4.20;99.90
73438;DHT22;66471;56.532;21.020;2024-01-10T09:32:36;4.30;99.90
73438;DHT22;66471;56.532;21.020;2024-01-10T09:35:04;4.30;99.90
73438;DHT22;66471;56.532;21.020;2024-01-10T09:37:32;4.30;99.90
73438;DHT22;66471;56.532;21.020;2024-01-10T09:40:01;4.50;99.90
73438;DHT22;66471;56.532;21.020;2024-01-10T09:42:29;4.40;99.90
73438;DHT22;66471;56.532;21.020;2024-01-10T09:45:01;4.20;99.90
73438;DHT22;66471;56.532;21.020;2024-01-10T09:47:30;4.20;99.90
73438;DHT22;66471;56.532;21.020;2024-01-10T09:49:59;4.30;99.90
73438;DHT22;66471;56.532;21.020;2024-01-10T09:52:41;4.50;99.90
73438;DHT22;66471;56.532;21.020;2024-01-10T09:55:13;4.40;99.90
73438;DHT22;66471;56.532;21.020;2024-01-10T09:57:41;4.40;99.90
73438;DHT22;66471;56.532;21.020;2024-01-10T10:00:11;4.50;99.90
73438;DHT22;66471;56.532;21.020;2024-01-10T10:02:39;4.40;99.90
73438;DHT22;66471;56.532;21.020;2024-01-10T10:05:15;4.40;99.90
73438;DHT22;66471;56.532;21.020;2024-01-10T10:07:48;4.40;99.90
73438;DHT22;66471;56.532;21.020;2024-01-10T10:10:16;4.40;99.90
73438;DHT22;66471;56.532;21.020;2024-01-10T10:12:53;4.40;99.90
73438;DHT22;66471;56.532;21.020;2024-01-10T10:15:23;4.20;99.90
73438;DHT22;66471;56.532;21.020;2024-01-10T10:17:54;4.60;99.90
73438;DHT22;66471;56.532;21.020;2024-01-10T10:20:30;4.40;99.90
73438;DHT22;66471;56.532;21.020;2024-01-10T10:23:07;4.40;99.90
73438;DHT22;66471;56.532;21.020;2024-01-10T10:25:54;4.40;99.90
73438;DHT22;66471;56.532;21.020;2024-01-10T10:28:40;4.30;99.90
73438;DHT22;66471;56.532;21.020;2024-01-10T10:31:37;4.30;99.90
73438;DHT22;66471;56.532;21.020;2024-01-10T10:34:35;4.50;99.90
73438;DHT22;66471;56.532;21.020;2024-01-10T10:37:24;4.40;99.90
73438;DHT22;66471;56.532;21.020;2024-01-10T10:40:11;4.30;99.90
73438;DHT22;66471;56.532;21.020;2024-01-10T10:42:48;4.40;99.90
73438;DHT22;66471;56.532;21.020;2024-01-10T10:45:19;4.40;99.90
73438;DHT22;66471;56.532;21.020;2024-01-10T10:48:00;4.50;99.90
73438;DHT22;66471;56.532;21.020;2024-01-10T10:51:03;4.40;99.90
73438;DHT22;66471;56.532;21.020;2024-01-10T10:54:03;4.50;99.90
73438;DHT22;66471;56.532;21.020;2024-01-10T10:56:42;4.40;99.90
73438;DHT22;66471;56.532;21.020;2024-01-10T10:59:15;4.20;99.90
73438;DHT22;66471;56.532;21.020;2024-01-10T11:01:57;4.50;99.90
73438;DHT22;66471;56.532;21.020;2024-01-10T11:04:43;4.40;99.90
73438;DHT22;66471;56.532;21.020;2024-01-10T11:07:15;4.40;99.90
73438;DHT22;66471;56.532;21.020;2024-01-10T11:10:03;4.30;99.90
73438;DHT22;66471;56.532;21.020;2024-01-10T11:24:29;4.00;99.90
73438;DHT22;66471;56.532;21.020;2024-01-10T11:27:07;4.10;99.90
73438;DHT22;66471;56.532;21.020;2024-01-10T11:29:40;4.30;99.90
73438;DHT22;66471;56.532;21.020;2024-01-10T11:32:16;4.30;99.90
73438;DHT22;66471;56.532;21.020;2024-01-10T11:35:19;4.40;99.90
73438;DHT22;66471;56.532;21.020;2024-01-10T11:37:49;4.40;99.90
73438;DHT22;66471;56.532;21.020;2024-01-10T12:53:21;3.80;99.90
73438;DHT22;66471;56.532;21.020;2024-01-10T12:55:50;3.90;99.90
73438;DHT22;66471;56.532;21.020;2024-01-10T12:58:18;3.90;99.90
73438;DHT22;66471;56.532;21.020;2024-01-10T13:00:50;3.80;99.90
73438;DHT22;66471;56.532;21.020;2024-01-10T13:03:18;3.70;99.90
73438;DHT22;66471;56.532;21.020;2024-01-10T13:05:46;3.70;99.90
73438;DHT22;66471;56.532;21.020;2024-01-10T13:08:13;3.80;99.90
73438;DHT22;66471;56.532;21.020;2024-01-10T13:10:41;3.80;99.90
73438;DHT22;66471;56.532;21.020;2024-01-10T13:13:10;3.80;99.90
73438;DHT22;66471;56.532;21.020;2024-01-10T13:15:38;4.10;99.90
73438;DHT22;66471;56.532;21.020;2024-01-10T13:18:05;4.20;99.90
73438;DHT22;66471;56.532;21.020;2024-01-10T13:20:33;4.10;99.90
73438;DHT22;66471;56.532;21.020;2024-01-10T13:23:04;4.30;99.90
73438;DHT22;66471;56.532;21.020;2024-01-10T13:25:32;4.00;99.90
73438;DHT22;66471;56.532;21.020;2024-01-10T13:27:59;3.90;99.90
73438;DHT22;66471;56.532;21.020;2024-01-10T13:30:27;3.90;99.90
73438;DHT22;66471;56.532;21.020;2024-01-10T13:32:55;3.90;99.90
73438;DHT22;66471;56.532;21.020;2024-01-10T13:35:22;3.70;99.90
73438;DHT22;66471;56.532;21.020;2024-01-10T13:37:50;3.50;99.90
73438;DHT22;66471;56.532;21.020;2024-01-10T13:40:17;3.40;99.90
73438;DHT22;66471;56.532;21.020;2024-01-10T13:42:47;3.50;99.90
73438;DHT22;66471;56.532;21.020;2024-01-10T13:45:17;3.50;99.90
73438;DHT22;66471;56.532;21.020;2024-01-10T13:47:44;3.30;99.90
73438;DHT22;66471;56.532;21.020;2024-01-10T13:50:12;3.30;99.90
73438;DHT22;66471;56.532;21.020;2024-01-10T13:52:39;3.40;99.90
73438;DHT22;66471;56.532;21.020;2024-01-10T13:55:07;3.20;99.90
73438;DHT22;66471;56.532;21.020;2024-01-10T13:57:35;3.10;99.90
73438;DHT22;66471;56.532;21.020;2024-01-10T14:00:03;3.40;99.90
73438;DHT22;66471;56.532;21.020;2024-01-10T14:02:35;3.40;99.90
73438;DHT22;66471;56.532;21.020;2024-01-10T14:05:03;3.40;99.90
73438;DHT22;66471;56.532;21.020;2024-01-10T14:07:33;3.40;99.90
73438;DHT22;66471;56.532;21.020;2024-01-10T14:10:01;3.30;99.90
73438;DHT22;66471;56.532;21.020;2024-01-10T14:12:30;3.00;99.90
73438;DHT22;66471;56.532;21.020;2024-01-10T14:14:58;3.20;99.90
73438;DHT22;66471;56.532;21.020;2024-01-10T14:17:29;3.10;99.90
73438;DHT22;66471;56.532;21.020;2024-01-10T14:19:58;3.10;99.90
73438;DHT22;66471;56.532;21.020;2024-01-10T14:22:25;3.20;99.90
73438;DHT22;66471;56.532;21.020;2024-01-10T14:24:59;3.10;99.90
73438;DHT22;66471;56.532;21.020;2024-01-10T14:27:29;3.10;99.90
73438;DHT22;66471;56.532;21.020;2024-01-10T14:29:56;3.10;99.90
73438;DHT22;66471;56.532;21.020;2024-01-10T14:32:23;3.10;99.90
73438;DHT22;66471;56.532;21.020;2024-01-10T14:34:50;3.10;99.90
73438;DHT22;66471;56.532;21.020;2024-01-10T14:37:18;3.10;99.90
73438;DHT22;66471;56.532;21.020;2024-01-10T14:39:47;3.10;99.90
73438;DHT22;66471;56.532;21.020;2024-01-10T14:42:14;3.20;99.90
73438;DHT22;66471;56.532;21.020;2024-01-10T14:44:42;3.00;99.90
73438;DHT22;66471;56.532;21.020;2024-01-10T14:47:11;3.00;99.90
73438;DHT22;66471;56.532;21.020;2024-01-10T14:49:39;2.90;99.90
73438;DHT22;66471;56.532;21.020;2024-01-10T14:52:06;3.00;99.90
73438;DHT22;66471;56.532;21.020;2024-01-10T14:54:33;2.90;99.90
73438;DHT22;66471;56.532;21.020;2024-01-10T14:57:01;3.10;99.90
73438;DHT22;66471;56.532;21.020;2024-01-10T14:59:28;3.00;99.90
73438;DHT22;66471;56.532;21.020;2024-01-10T15:02:12;2.90;99.90
73438;DHT22;66471;56.532;21.020;2024-01-10T15:04:40;3.00;99.90
73438;DHT22;66471;56.532;21.020;2024-01-10T15:07:07;2.90;99.90
73438;DHT22;66471;56.532;21.020;2024-01-10T15:09:34;2.80;99.90
73438;DHT22;66471;56.532;21.020;2024-01-10T15:12:07;2.90;99.90
73438;DHT22;66471;56.532;21.020;2024-01-10T15:14:36;2.80;99.90
73438;DHT22;66471;56.532;21.020;2024-01-10T15:17:04;2.80;99.90
73438;DHT22;66471;56.532;21.020;2024-01-10T15:19:40;2.90;99.90
73438;DHT22;66471;56.532;21.020;2024-01-10T15:22:08;2.90;99.90
73438;DHT22;66471;56.532;21.020;2024-01-10T15:24:35;2.90;99.90
73438;DHT22;66471;56.532;21.020;2024-01-10T15:27:03;2.90;99.90
73438;DHT22;66471;56.532;21.020;2024-01-10T15:29:33;2.80;99.90
73438;DHT22;66471;56.532;21.020;2024-01-10T15:32:02;3.00;99.90
73438;DHT22;66471;56.532;21.020;2024-01-10T15:34:30;2.70;99.90
73438;DHT22;66471;56.532;21.020;2024-01-10T15:36:57;2.90;99.90
73438;DHT22;66471;56.532;21.020;2024-01-10T15:39:25;3.00;99.90
73438;DHT22;66471;56.532;21.020;2024-01-10T15:41:53;2.80;99.90
73438;DHT22;66471;56.532;21.020;2024-01-10T15:44:21;2.90;99.90
73438;DHT22;66471;56.532;21.020;2024-01-10T15:46:49;2.90;99.90
73438;DHT22;66471;56.532;21.020;2024-01-10T15:49:18;2.80;99.90
73438;DHT22;66471;56.532;21.020;2024-01-10T15:51:45;3.00;99.90
73438;DHT22;66471;56.532;21.020;2024-01-10T15:54:13;3.00;99.90
73438;DHT22;66471;56.532;21.020;2024-01-10T15:56:41;2.80;99.90
73438;DHT22;66471;56.532;21.020;2024-01-10T15:59:08;3.00;99.90
73438;DHT22;66471;56.532;21.020;2024-01-10T16:01:40;2.90;99.90
73438;DHT22;66471;56.532;21.020;2024-01-10T16:04:07;2.90;99.90
73438;DHT22;66471;56.532;21.020;2024-01-10T16:06:35;2.70;99.90
73438;DHT22;66471;56.532;21.020;2024-01-10T16:09:02;2.90;99.90
73438;DHT22;66471;56.532;21.020;2024-01-10T16:11:49;3.00;99.90
73438;DHT22;66471;56.532;21.020;2024-01-10T16:14:16;3.00;99.90
73438;DHT22;66471;56.532;21.020;2024-01-10T16:16:44;2.90;99.90
73438;DHT22;66471;56.532;21.020;2024-01-10T16:19:11;2.90;99.90
73438;DHT22;66471;56.532;21.020;2024-01-10T16:21:39;2.90;99.90
73438;DHT22;66471;56.532;21.020;2024-01-10T16:24:06;2.90;99.90
73438;DHT22;66471;56.532;21.020;2024-01-10T16:26:35;2.80;99.90
73438;DHT22;66471;56.532;21.020;2024-01-10T16:29:04;2.90;99.90
73438;DHT22;66471;56.532;21.020;2024-01-10T16:31:31;2.90;99.90
